Kezdőlap
METAR-TAF:

METAR-TAF

Repülőterek :

Monroe Municipal Airport

Monroe, Wisconsin, Amerikai Egyesült Államok

földrajzi szélesség: 42-36-54N, földrajzi hosszúság: 089-35-27W, magasság: 331 m

Jelenlegi meteorológiai megfigyelések

A jelentés 44 perccel ezelõtt készült, 08:15 UTC
Nyugat-északnyugati szél 8 kt
Hőmérséklet -5°C
Páratartalom 63%
Légköri nyomás 1018 hPa
Látótávolság: 16.1 km
Borult 4900 lábon

METAR: KEFT 270815Z AUTO 29008KT 10SM OVC049 M05/M11 A3006 RMK AO2 T10501111

Idő: 02:59 (08:59 UTC)


TAF: hiányzik

Meteorológiai megfigyelések és előrejelzések több, mint 4000 repülőtéren (METAR és TAF jelentéseket).

A térképen piros és sárga pontok jelzik az elérhető meteorológiai állomásokat.

Mozgassa az egeret a pont fölött, hogy megjelenjen az állomás neve.

Azután kattintson az időjárási megfigyelések és előrejelzések megtekintéséhez.

A térkép megváltoztatása: kattintson a fekete keresztel jelölt zöld gombra ráközelítéshez, a vonallal jelölt zöld gombra távolításhoz, vagy a zöld nyilakra a szomszédos térképek eléréséhez.


METAR-TAF: